This is the latest recevied weather packets stored in our database for station/object K5VP. If no packets are shown the sender has not sent any weather packets the latest 10 day(s).
| Time | Temp. | Humidity | Pressure | Rain* | Wind** | Luminosity | Snow |
|---|---|---|---|---|---|---|---|
| 1777903510 | 18.89° C | 69% | 1014.6 hPa | 0 mm | - | - | - |
| 1777903196 | 18.89° C | 70% | 1014.7 hPa | 0 mm | - | - | - |
| 1777902888 | 18.33° C | 68% | 1014.7 hPa | 0 mm | - | - | - |
| 1777902580 | 18.33° C | 69% | 1014.7 hPa | 0 mm | - | - | - |
| 1777902263 | 18.33° C | 69% | 1014.7 hPa | 0 mm | - | - | - |
| 1777901945 | 17.78° C | 70% | 1014.7 hPa | 0 mm | - | - | - |
| 1777901626 | 17.78° C | 70% | 1014.6 hPa | 0 mm | - | - | - |
| 1777901323 | 17.78° C | 71% | 1014.6 hPa | 0 mm | - | - | - |
| 1777901004 | 17.22° C | 72% | 1014.6 hPa | 0 mm | - | - | - |
| 1777900694 | 17.22° C | 73% | 1014.6 hPa | 0 mm | - | - | - |
| 1777900373 | 16.67° C | 73% | 1014.5 hPa | 0 mm | - | - | - |
| 1777900063 | 16.11° C | 75% | 1014.6 hPa | 0 mm | - | - | - |
| 1777899748 | 15.56° C | 76% | 1014.5 hPa | 0 mm | - | - | - |
| 1777877426 | 10.56° C | 79% | 1014.9 hPa | 0 mm | - | - | - |
| 1777877134 | 10.56° C | 80% | 1014.9 hPa | 0 mm | - | - | - |
| 1777876836 | 10.56° C | 80% | 1014.9 hPa | 0 mm | - | - | - |
| 1777876522 | 10.56° C | 79% | 1014.9 hPa | 0 mm | - | - | - |
| 1777876210 | 10.56° C | 80% | 1015 hPa | 0 mm | - | - | - |
| 1777875901 | 10.56° C | 79% | 1015.2 hPa | 0 mm | - | - | - |
| 1777875598 | 10.56° C | 79% | 1015.3 hPa | 0 mm | - | - | - |
| 1777875282 | 10.56° C | 78% | 1015.3 hPa | 0 mm | - | - | - |
| 1777874981 | 10.56° C | 78% | 1015.4 hPa | 0 mm | - | - | - |
| 1777874687 | 10.56° C | 78% | 1015.4 hPa | 0 mm | - | - | - |
| 1777874369 | 11.11° C | 77% | 1015.5 hPa | 0 mm | - | - | - |
| 1777874056 | 11.11° C | 77% | 1015.5 hPa | 0 mm | - | - | - |
* Rain latest hour (hover to see other rain measurements)
** Current wind speed in m/s (hover to see current wind gust speed)